createdAt,value
2019-02-08T00:00:59.153Z,99979.48
2019-02-08T00:03:28.133Z,99988.66
2019-02-08T00:05:57.117Z,99986.09
2019-02-08T00:08:26.124Z,99989.13
2019-02-08T00:10:55.090Z,99989.56
2019-02-08T00:13:24.100Z,99990.02
2019-02-08T00:15:53.070Z,99985.63
2019-02-08T00:18:22.065Z,99995.23
2019-02-08T00:20:51.018Z,99990.85
2019-02-08T00:23:26.927Z,99997.83
2019-02-08T00:25:51.091Z,99996.08
2019-02-08T00:28:20.064Z,99996.06
2019-02-08T00:30:49.044Z,100003.08
2019-02-08T00:33:18.094Z,100002.19
2019-02-08T00:35:47.112Z,100006.98
2019-02-08T00:38:16.094Z,100009.61
2019-02-08T00:40:45.098Z,100018.34
2019-02-08T00:43:14.078Z,100019.66
2019-02-08T00:45:43.054Z,100023.16
2019-02-08T00:48:12.041Z,100021.42
2019-02-08T00:50:41.016Z,100014.00
2019-02-08T00:53:09.985Z,100028.86
2019-02-08T00:55:39.342Z,100026.66
2019-02-08T00:58:08.319Z,100021.00
2019-02-08T01:00:37.288Z,100025.80
2019-02-08T01:03:06.307Z,100025.38
2019-02-08T01:05:35.279Z,100019.68
2019-02-08T01:08:04.305Z,100016.64
2019-02-08T01:10:33.333Z,100018.81
2019-02-08T01:13:02.609Z,100025.38
2019-02-08T01:15:31.653Z,100034.16
2019-02-08T01:18:00.697Z,100038.52
2019-02-08T01:20:29.694Z,100033.72
2019-02-08T01:22:58.639Z,100037.66
2019-02-08T01:25:27.628Z,100034.14
2019-02-08T01:27:56.610Z,100036.34
2019-02-08T01:30:27.285Z,100038.55
2019-02-08T01:32:56.296Z,100041.14
2019-02-08T01:35:26.112Z,100044.61
2019-02-08T01:37:55.732Z,100047.25
2019-02-08T01:40:26.875Z,100045.50
2019-02-08T01:42:55.902Z,100045.95
2019-02-08T01:45:26.278Z,100047.70
2019-02-08T01:47:55.258Z,100047.68
2019-02-08T01:50:25.808Z,100049.88
2019-02-08T01:52:54.784Z,100044.17
2019-02-08T01:55:23.741Z,100047.69
2019-02-08T01:57:52.887Z,100048.98
2019-02-08T02:00:23.941Z,100048.96
2019-02-08T02:02:52.917Z,100046.75
2019-02-08T02:05:21.960Z,100051.99
2019-02-08T02:07:50.951Z,100049.78
2019-02-08T02:10:25.983Z,100050.64
2019-02-08T02:12:54.967Z,100044.50
2019-02-08T02:15:23.961Z,100051.92
2019-02-08T02:17:52.941Z,100044.05
2019-02-08T02:20:23.951Z,100055.41
2019-02-08T02:22:52.924Z,100053.23
2019-02-08T02:25:21.955Z,100046.67
2019-02-08T02:27:50.964Z,100043.63
2019-02-08T02:30:23.638Z,100048.87
2019-02-08T02:32:52.658Z,100056.29
2019-02-08T02:35:21.639Z,100054.11
2019-02-08T02:37:50.701Z,100058.00
2019-02-08T02:40:20.138Z,100062.38
2019-02-08T02:42:49.117Z,100064.52
2019-02-08T02:45:23.670Z,100059.25
2019-02-08T02:47:52.706Z,100066.23
2019-02-08T02:50:21.726Z,100064.91
2019-02-08T02:52:50.773Z,100063.15
2019-02-08T02:55:19.884Z,100067.98
2019-02-08T02:57:48.851Z,100068.81
2019-02-08T03:00:21.563Z,100067.07
2019-02-08T03:02:50.544Z,100070.98
2019-02-08T03:05:19.533Z,100076.23
2019-02-08T03:07:48.523Z,100062.70
2019-02-08T03:10:18.177Z,100063.13
2019-02-08T03:12:47.131Z,100064.44
2019-02-08T03:15:17.668Z,100055.66
2019-02-08T03:17:46.635Z,100070.95
2019-02-08T03:20:17.169Z,100058.69
2019-02-08T03:22:46.133Z,100071.81
2019-02-08T03:25:17.426Z,100071.83
2019-02-08T03:27:46.431Z,100070.95
2019-02-08T03:30:18.455Z,100075.31
2019-02-08T03:32:47.412Z,100066.55
2019-02-08T03:35:19.425Z,100072.59
2019-02-08T03:37:48.422Z,100064.28
2019-02-08T03:40:20.260Z,100078.23
2019-02-08T03:42:49.244Z,100075.16
2019-02-08T03:45:18.772Z,100073.81
2019-02-08T03:47:47.756Z,100070.70
2019-02-08T03:50:17.395Z,100072.48
2019-02-08T03:52:46.385Z,100070.73
2019-02-08T03:55:16.811Z,100072.02
2019-02-08T03:57:45.776Z,100068.08
2019-02-08T04:00:21.592Z,100070.67
2019-02-08T04:02:50.579Z,100068.13
2019-02-08T04:05:19.643Z,100064.17
2019-02-08T04:07:48.645Z,100064.61
2019-02-08T04:10:17.644Z,100062.45
2019-02-08T04:12:46.669Z,100066.80
2019-02-08T04:15:17.153Z,100066.81
2019-02-08T04:17:46.112Z,100057.63
2019-02-08T04:20:16.398Z,100058.47
2019-02-08T04:22:45.377Z,100059.36
2019-02-08T04:25:15.364Z,100062.84
2019-02-08T04:27:44.331Z,100064.16
2019-02-08T04:30:31.514Z,100064.61
2019-02-08T04:33:00.592Z,100058.48
2019-02-08T04:35:29.611Z,100058.02
2019-02-08T04:37:58.561Z,100057.58
2019-02-08T04:40:27.542Z,100061.95
2019-02-08T04:42:56.961Z,100058.88
2019-02-08T04:45:25.964Z,100061.54
2019-02-08T04:47:54.933Z,100055.84
2019-02-08T04:50:24.072Z,100056.74
2019-02-08T04:52:53.062Z,100053.72
2019-02-08T04:55:22.024Z,100053.73
2019-02-08T04:57:50.991Z,100047.63
2019-02-08T05:00:25.030Z,100055.05
2019-02-08T05:02:54.015Z,100065.50
2019-02-08T05:05:23.046Z,100075.07
2019-02-08T05:07:52.037Z,100069.84
2019-02-08T05:10:22.759Z,100066.78
2019-02-08T05:12:51.921Z,100059.28
2019-02-08T05:15:20.892Z,100055.33
2019-02-08T05:17:50.040Z,100056.61
2019-02-08T05:20:20.123Z,100055.71
2019-02-08T05:22:49.138Z,100061.85
2019-02-08T05:25:18.193Z,100055.71
2019-02-08T05:27:47.187Z,100053.06
2019-02-08T05:30:21.841Z,100056.08
2019-02-08T05:32:49.983Z,100053.02
2019-02-08T05:35:21.177Z,100058.23
2019-02-08T05:37:50.263Z,100058.66
2019-02-08T05:40:19.606Z,100056.06
2019-02-08T05:42:48.598Z,100058.23
2019-02-08T05:45:18.084Z,100054.28
2019-02-08T05:47:47.036Z,100053.81
2019-02-08T05:50:20.962Z,100049.47
2019-02-08T05:52:49.954Z,100048.58
2019-02-08T05:55:20.768Z,100045.08
2019-02-08T05:57:49.752Z,100048.53
2019-02-08T06:00:45.366Z,100045.02
2019-02-08T06:03:14.372Z,100044.13
2019-02-08T06:05:43.376Z,100045.00
2019-02-08T06:08:12.368Z,100043.20
2019-02-08T06:10:41.358Z,100040.61
2019-02-08T06:13:10.398Z,100047.55
2019-02-08T06:15:39.392Z,100043.19
2019-02-08T06:18:09.564Z,100045.36
2019-02-08T06:20:38.576Z,100044.50
2019-02-08T06:23:07.856Z,100032.30
2019-02-08T06:25:36.844Z,100031.45
2019-02-08T06:28:06.467Z,100031.88
2019-02-08T06:30:35.440Z,100032.32
2019-02-08T06:33:04.689Z,100027.92
2019-02-08T06:35:33.663Z,100030.06
2019-02-08T06:38:02.657Z,100029.66
2019-02-08T06:40:32.128Z,100030.48
2019-02-08T06:43:01.213Z,100029.18
2019-02-08T06:45:30.207Z,100026.13
2019-02-08T06:47:59.186Z,100030.58
2019-02-08T06:50:28.180Z,100030.99
2019-02-08T06:52:57.185Z,100026.62
2019-02-08T06:55:26.174Z,100028.34
2019-02-08T06:58:15.264Z,100033.61
2019-02-08T07:01:07.199Z,100030.11
2019-02-08T07:03:55.184Z,100028.45
2019-02-08T07:06:35.190Z,100034.52
2019-02-08T07:09:34.784Z,100037.16
2019-02-08T07:12:22.706Z,100036.30
2019-02-08T07:15:28.898Z,100038.91
2019-02-08T07:18:19.926Z,100039.38
2019-02-08T07:21:13.493Z,100035.06
2019-02-08T07:24:00.244Z,100036.80
2019-02-08T07:26:46.959Z,100040.30
2019-02-08T07:29:37.737Z,100034.63
2019-02-08T07:32:43.735Z,100034.64
2019-02-08T07:35:30.393Z,100032.52
2019-02-08T07:38:18.333Z,100034.30
2019-02-08T07:41:16.051Z,100042.22
2019-02-08T07:44:03.983Z,100044.41
2019-02-08T07:46:50.731Z,100034.79
2019-02-08T07:49:30.776Z,100039.59
2019-02-08T07:52:12.373Z,100043.11
2019-02-08T07:54:51.279Z,100044.42
2019-02-08T07:57:51.379Z,100048.77
2019-02-08T08:00:45.074Z,100058.84
2019-02-08T08:03:26.659Z,100043.61
2019-02-08T08:06:17.407Z,100038.40
2019-02-08T08:09:03.794Z,100045.03
2019-02-08T08:11:51.746Z,100046.80
2019-02-08T08:14:35.060Z,100047.25
2019-02-08T08:17:21.710Z,100042.45
2019-02-08T08:20:06.740Z,100048.63
2019-02-08T08:23:05.926Z,100044.77
2019-02-08T08:26:00.058Z,100053.95
2019-02-08T08:28:42.193Z,100056.14
2019-02-08T08:31:18.708Z,100049.60
2019-02-08T08:33:55.924Z,100044.30
2019-02-08T08:37:21.205Z,100049.55
2019-02-08T08:40:34.475Z,100050.82
2019-02-08T08:43:48.102Z,100046.03
2019-02-08T08:46:40.040Z,100042.55
2019-02-08T08:49:47.381Z,100037.73
2019-02-08T08:52:34.952Z,100036.45
2019-02-08T08:55:42.316Z,100036.05
2019-02-08T08:58:55.502Z,100044.78
2019-02-08T09:02:14.930Z,100039.12
2019-02-08T09:05:32.097Z,100033.92
2019-02-08T09:09:00.349Z,100032.66
2019-02-08T09:11:58.868Z,100024.83
2019-02-08T09:15:07.177Z,100024.03
2019-02-08T09:18:14.460Z,100025.38
2019-02-08T09:21:25.335Z,100026.30
2019-02-08T09:24:38.577Z,100025.41
2019-02-08T09:27:42.506Z,100019.29
2019-02-08T09:30:47.122Z,100029.80
2019-02-08T09:33:51.763Z,100025.03
2019-02-08T09:36:59.019Z,100030.74
2019-02-08T09:40:08.939Z,100021.59
2019-02-08T09:43:30.036Z,100029.48
2019-02-08T09:46:42.198Z,100027.30
2019-02-08T09:49:50.955Z,100032.11
2019-02-08T09:53:08.983Z,100024.66
2019-02-08T09:56:09.803Z,100024.27
2019-02-08T09:59:23.156Z,100016.38
2019-02-08T10:02:36.017Z,100028.64
2019-02-08T10:05:16.915Z,100022.95
2019-02-08T10:08:22.523Z,100025.62
2019-02-08T10:11:40.518Z,100017.28
2019-02-08T10:15:17.748Z,100004.16
2019-02-08T10:18:30.871Z,100016.00
2019-02-08T10:21:55.370Z,100010.77
2019-02-08T10:25:03.352Z,100006.84
2019-02-08T10:28:09.434Z,100007.73
2019-02-08T10:31:11.775Z,100014.77
2019-02-08T10:34:37.113Z,100014.30
2019-02-08T10:37:37.566Z,100016.06
2019-02-08T10:40:45.984Z,100017.39
2019-02-08T10:44:07.945Z,100006.45
2019-02-08T10:47:05.926Z,100010.81
2019-02-08T10:50:09.850Z,99996.81
2019-02-08T10:53:13.530Z,99990.67
2019-02-08T10:56:37.675Z,99995.50
2019-02-08T10:59:42.253Z,99988.95
2019-02-08T11:02:58.237Z,99983.26
2019-02-08T11:06:03.271Z,99980.19
2019-02-08T11:09:07.819Z,99971.42
2019-02-08T11:12:18.919Z,99978.00
2019-02-08T11:15:21.685Z,99971.02
2019-02-08T11:18:34.213Z,99971.02
2019-02-08T11:21:03.313Z,99964.00
2019-02-08T11:23:32.307Z,99957.44
2019-02-08T11:26:01.433Z,99967.05
2019-02-08T11:28:30.377Z,99947.36
2019-02-08T11:30:59.386Z,99948.21
2019-02-08T11:33:28.365Z,99932.00
2019-02-08T11:35:57.368Z,99932.44
2019-02-08T11:38:26.362Z,99940.80
2019-02-08T11:40:55.354Z,99928.97
2019-02-08T11:43:24.346Z,99939.91
2019-02-08T11:45:53.402Z,99927.64
2019-02-08T11:48:22.394Z,99920.64
2019-02-08T11:50:51.366Z,99919.32
2019-02-08T11:53:20.372Z,99912.31
2019-02-08T11:55:49.363Z,99918.44
2019-02-08T11:58:18.330Z,99917.56
2019-02-08T12:00:50.640Z,99923.70
2019-02-08T12:03:19.698Z,99912.30
2019-02-08T12:05:48.715Z,99900.92
2019-02-08T12:08:17.723Z,99902.67
2019-02-08T12:10:46.728Z,99893.03
2019-02-08T12:13:15.731Z,99883.83
2019-02-08T12:15:44.726Z,99885.59
2019-02-08T12:18:13.738Z,99888.66
2019-02-08T12:20:42.701Z,99902.23
2019-02-08T12:23:11.773Z,99899.16
2019-02-08T12:25:40.751Z,99893.47
2019-02-08T12:28:09.789Z,99892.59
2019-02-08T12:30:39.367Z,99894.34
2019-02-08T12:33:08.355Z,99885.15
2019-02-08T12:35:37.350Z,99879.89
2019-02-08T12:38:06.373Z,99882.08
2019-02-08T12:40:35.420Z,99872.88
2019-02-08T12:43:04.594Z,99871.56
2019-02-08T12:45:33.605Z,99869.81
2019-02-08T12:48:02.722Z,99871.13
2019-02-08T12:50:31.727Z,99868.06
2019-02-08T12:53:00.726Z,99865.00
2019-02-08T12:55:29.735Z,99858.42
2019-02-08T12:57:58.744Z,99852.30
2019-02-08T13:00:27.746Z,99855.36
2019-02-08T13:02:56.734Z,99842.22
2019-02-08T13:05:25.767Z,99842.66
2019-02-08T13:07:54.848Z,99840.03
2019-02-08T13:10:24.023Z,99839.59
2019-02-08T13:12:53.243Z,99836.97
2019-02-08T13:15:22.353Z,99836.97
2019-02-08T13:17:51.396Z,99840.47
2019-02-08T13:20:20.546Z,99827.36
2019-02-08T13:22:49.526Z,99837.42
2019-02-08T13:25:18.581Z,99820.35
2019-02-08T13:27:47.591Z,99819.48
2019-02-08T13:30:19.624Z,99825.61
2019-02-08T13:32:48.664Z,99808.09
2019-02-08T13:35:18.176Z,99809.84
2019-02-08T13:37:47.209Z,99811.16
2019-02-08T13:40:18.577Z,99808.09
2019-02-08T13:42:47.573Z,99804.12
2019-02-08T13:45:16.680Z,99801.92
2019-02-08T13:47:45.663Z,99795.80
2019-02-08T13:50:17.401Z,99803.67
2019-02-08T13:52:46.430Z,99789.66
2019-02-08T13:55:16.195Z,99803.67
2019-02-08T13:57:45.212Z,99791.41
2019-02-08T14:00:20.477Z,99794.04
2019-02-08T14:02:49.597Z,99789.20
2019-02-08T14:05:18.684Z,99794.91
2019-02-08T14:07:47.796Z,99798.84
2019-02-08T14:10:17.795Z,99782.64
2019-02-08T14:12:46.817Z,99782.20
2019-02-08T14:15:17.176Z,99773.88
2019-02-08T14:17:46.422Z,99776.91
2019-02-08T14:20:20.548Z,99776.46
2019-02-08T14:22:49.565Z,99771.20
2019-02-08T14:25:18.692Z,99765.51
2019-02-08T14:27:47.817Z,99766.38
2019-02-08T14:30:29.135Z,99763.30
2019-02-08T14:32:58.185Z,99770.31
2019-02-08T14:35:27.312Z,99757.17
2019-02-08T14:37:56.577Z,99757.61
2019-02-08T14:40:25.762Z,99756.28
2019-02-08T14:42:54.922Z,99751.02
2019-02-08T14:45:24.033Z,99747.08
2019-02-08T14:47:53.421Z,99733.06
2019-02-08T14:50:24.009Z,99737.88
2019-02-08T14:52:53.137Z,99737.02
2019-02-08T14:55:22.127Z,99742.27
2019-02-08T14:57:51.839Z,99729.56
2019-02-08T15:00:21.450Z,99734.39
2019-02-08T15:02:50.461Z,99741.41
2019-02-08T15:05:19.633Z,99730.03
2019-02-08T15:07:48.760Z,99724.82
2019-02-08T15:10:26.386Z,99732.28
2019-02-08T15:12:55.448Z,99719.14
2019-02-08T15:15:24.535Z,99709.95
2019-02-08T15:17:53.523Z,99712.58
2019-02-08T15:20:24.785Z,99705.58
2019-02-08T15:22:53.772Z,99709.52
2019-02-08T15:25:22.876Z,99702.06
2019-02-08T15:27:51.915Z,99699.44
2019-02-08T15:30:23.043Z,99695.05
2019-02-08T15:32:52.448Z,99692.00
2019-02-08T15:35:22.503Z,99680.17
2019-02-08T15:37:51.574Z,99671.45
2019-02-08T15:40:47.197Z,99677.11
2019-02-08T15:43:17.475Z,99670.14
2019-02-08T15:45:50.059Z,99681.48
2019-02-08T15:48:19.233Z,99670.98
2019-02-08T15:50:48.293Z,99680.66
2019-02-08T15:53:17.304Z,99661.77
2019-02-08T15:55:48.370Z,99654.76
2019-02-08T15:58:17.501Z,99655.20
2019-02-08T16:00:46.515Z,99658.25
2019-02-08T16:03:15.704Z,99652.12
2019-02-08T16:05:45.619Z,99645.09
2019-02-08T16:08:14.730Z,99646.41
2019-02-08T16:10:43.889Z,99657.80
2019-02-08T16:13:12.916Z,99654.28
2019-02-08T16:15:41.977Z,99649.91
2019-02-08T16:18:11.048Z,99643.35
2019-02-08T16:20:40.333Z,99642.92
2019-02-08T16:23:09.426Z,99629.33
2019-02-08T16:25:38.664Z,99636.78
2019-02-08T16:28:07.808Z,99624.08
2019-02-08T16:30:36.896Z,99635.01
2019-02-08T16:33:06.737Z,99638.08
2019-02-08T16:35:35.776Z,99631.03
2019-02-08T16:38:04.830Z,99625.76
2019-02-08T16:40:33.824Z,99615.25
2019-02-08T16:43:02.861Z,99617.42
2019-02-08T16:45:33.715Z,99608.67
2019-02-08T16:48:03.175Z,99604.73
2019-02-08T16:50:32.548Z,99599.45
2019-02-08T16:53:01.541Z,99596.36
2019-02-08T16:55:30.571Z,99602.04
2019-02-08T16:57:59.577Z,99591.97
2019-02-08T17:00:30.413Z,99588.49
2019-02-08T17:03:00.321Z,99590.23
2019-02-08T17:05:29.991Z,99599.44
2019-02-08T17:07:58.985Z,99583.64
2019-02-08T17:10:28.040Z,99577.08
2019-02-08T17:12:58.258Z,99568.34
2019-02-08T17:15:27.941Z,99569.66
2019-02-08T17:17:57.707Z,99558.70
2019-02-08T17:20:37.664Z,99556.94
2019-02-08T17:23:06.673Z,99550.80
2019-02-08T17:25:35.852Z,99546.44
2019-02-08T17:28:05.262Z,99536.84
2019-02-08T17:30:34.322Z,99530.70
2019-02-08T17:33:03.326Z,99527.17
2019-02-08T17:35:32.380Z,99510.10
2019-02-08T17:38:01.436Z,99511.39
2019-02-08T17:40:31.974Z,99508.75
2019-02-08T17:43:01.032Z,99505.69
2019-02-08T17:45:30.112Z,99513.59
2019-02-08T17:48:01.658Z,99493.41
2019-02-08T17:50:30.655Z,99512.26
2019-02-08T17:53:01.081Z,99516.20
2019-02-08T17:55:30.135Z,99495.16
2019-02-08T17:58:03.661Z,99488.19
2019-02-08T18:00:44.593Z,99518.84
2019-02-08T18:03:13.670Z,99501.33
2019-02-08T18:05:42.709Z,99494.29
2019-02-08T18:08:11.744Z,99484.19
2019-02-08T18:10:40.874Z,99479.81
2019-02-08T18:13:10.060Z,99509.19
2019-02-08T18:15:39.042Z,99471.52
2019-02-08T18:18:10.210Z,99467.14
2019-02-08T18:20:41.664Z,99470.22
2019-02-08T18:23:10.663Z,99466.73
2019-02-08T18:25:39.698Z,99464.52
2019-02-08T18:28:10.950Z,99466.28
2019-02-08T18:30:39.798Z,99457.48
2019-02-08T18:33:08.869Z,99453.12
2019-02-08T18:35:38.028Z,99452.69
2019-02-08T18:38:07.086Z,99467.14
2019-02-08T18:40:36.138Z,99450.92
2019-02-08T18:43:05.369Z,99476.30
2019-02-08T18:45:34.665Z,99428.55
2019-02-08T18:48:03.737Z,99427.69
2019-02-08T18:50:38.072Z,99427.69
2019-02-08T18:53:07.101Z,99425.97
2019-02-08T18:55:36.283Z,99427.71
2019-02-08T18:58:06.032Z,99422.45
2019-02-08T19:00:39.944Z,99420.26
2019-02-08T19:03:08.743Z,99434.23
2019-02-08T19:05:37.747Z,99408.37
2019-02-08T19:08:06.985Z,99411.89
2019-02-08T19:10:36.014Z,99410.59
2019-02-08T19:13:05.193Z,99406.20
2019-02-08T19:15:34.266Z,99400.06
2019-02-08T19:18:03.918Z,99398.30
2019-02-08T19:20:33.515Z,99401.81
2019-02-08T19:23:03.429Z,99417.55
2019-02-08T19:25:34.546Z,99391.70
2019-02-08T19:28:03.705Z,99397.84
2019-02-08T19:30:34.957Z,99382.92
2019-02-08T19:33:04.469Z,99393.84
2019-02-08T19:35:34.368Z,99378.02
2019-02-08T19:38:03.833Z,99372.75
2019-02-08T19:40:35.665Z,99374.94
2019-02-08T19:43:05.638Z,99373.16
2019-02-08T19:45:35.468Z,99356.91
2019-02-08T19:48:05.692Z,99348.19
2019-02-08T19:50:37.049Z,99358.26
2019-02-08T19:53:07.059Z,99360.03
2019-02-08T19:55:36.668Z,99351.25
2019-02-08T19:58:06.743Z,99346.85
2019-02-08T20:00:36.058Z,99363.06
2019-02-08T20:03:05.830Z,99342.01
2019-02-08T20:05:38.515Z,99336.61
2019-02-08T20:08:10.033Z,99341.44
2019-02-08T20:10:41.302Z,99333.58
2019-02-08T20:13:13.171Z,99331.46
2019-02-08T20:15:42.876Z,99324.34
2019-02-08T20:18:12.764Z,99319.52
2019-02-08T20:20:43.331Z,99335.70
2019-02-08T20:23:13.101Z,99322.57
2019-02-08T20:25:43.063Z,99321.22
2019-02-08T20:28:12.670Z,99323.88
2019-02-08T20:30:42.576Z,99312.91
2019-02-08T20:33:12.797Z,99309.84
2019-02-08T20:35:43.535Z,99293.56
2019-02-08T20:38:12.594Z,99299.75
2019-02-08T20:40:45.308Z,99288.84
2019-02-08T20:43:15.019Z,99284.39
2019-02-08T20:45:44.630Z,99285.28
2019-02-08T20:48:16.898Z,99305.50
2019-02-08T20:50:46.365Z,99280.05
2019-02-08T20:53:15.505Z,99268.69
2019-02-08T20:55:44.892Z,99268.33
2019-02-08T20:58:14.306Z,99291.56
2019-02-08T21:00:46.180Z,99266.60
2019-02-08T21:03:16.194Z,99274.05
2019-02-08T21:05:45.981Z,99263.00
2019-02-08T21:08:16.049Z,99263.05
2019-02-08T21:10:46.246Z,99256.53
2019-02-08T21:13:15.707Z,99251.70
2019-02-08T21:15:45.009Z,99254.36
2019-02-08T21:18:14.566Z,99254.33
2019-02-08T21:20:46.824Z,99243.38
2019-02-08T21:23:16.627Z,99239.47
2019-02-08T21:25:52.381Z,99238.16
2019-02-08T21:28:16.494Z,99230.27
2019-02-08T21:30:46.038Z,99229.36
2019-02-08T21:33:15.130Z,99224.13
2019-02-08T21:35:44.435Z,99231.11
2019-02-08T21:38:15.077Z,99229.36
2019-02-08T21:40:44.185Z,99217.19
2019-02-08T21:43:13.815Z,99210.56
2019-02-08T21:45:44.085Z,99200.95
2019-02-08T21:48:13.693Z,99199.67
2019-02-08T21:50:43.208Z,99203.10
2019-02-08T21:53:12.236Z,99196.95
2019-02-08T21:55:41.267Z,99197.42
2019-02-08T21:58:12.689Z,99198.31
2019-02-08T22:00:42.572Z,99193.08
2019-02-08T22:03:12.026Z,99186.49
2019-02-08T22:06:04.642Z,99187.36
2019-02-08T22:08:33.663Z,99164.20
2019-02-08T22:11:02.704Z,99177.75
2019-02-08T22:13:31.992Z,99165.91
2019-02-08T22:16:01.419Z,99154.05
2019-02-08T22:18:30.406Z,99161.91
2019-02-08T22:20:59.515Z,99169.37
2019-02-08T22:23:28.501Z,99182.03
2019-02-08T22:25:57.551Z,99150.94
2019-02-08T22:28:27.221Z,99175.40
2019-02-08T22:30:56.233Z,99154.75
2019-02-08T22:33:25.232Z,99142.97
2019-02-08T22:35:54.308Z,99154.83
2019-02-08T22:38:23.495Z,99152.20
2019-02-08T22:40:52.625Z,99129.77
2019-02-08T22:43:21.668Z,99133.71
2019-02-08T22:45:50.733Z,99119.30
2019-02-08T22:48:19.742Z,99119.75
2019-02-08T22:50:48.769Z,99114.09
2019-02-08T22:53:17.828Z,99115.80
2019-02-08T22:55:46.983Z,99112.67
2019-02-08T22:58:15.955Z,99103.56
2019-02-08T23:01:23.678Z,99094.27
2019-02-08T23:03:56.556Z,99082.34
2019-02-08T23:06:27.754Z,99074.08
2019-02-08T23:08:56.778Z,99089.85
2019-02-08T23:11:25.864Z,99073.61
2019-02-08T23:13:56.908Z,99067.92
2019-02-08T23:16:25.918Z,99073.16
2019-02-08T23:18:54.906Z,99082.84
2019-02-08T23:21:23.896Z,99067.08
2019-02-08T23:23:52.859Z,99067.92
2019-02-08T23:26:21.889Z,99056.98
2019-02-08T23:28:50.921Z,99051.38
2019-02-08T23:31:19.979Z,99045.70
2019-02-08T23:33:48.983Z,99041.67
2019-02-08T23:36:17.945Z,99050.95
2019-02-08T23:38:46.985Z,99051.47
2019-02-08T23:41:15.970Z,99058.51
2019-02-08T23:43:45.040Z,99069.00
2019-02-08T23:46:14.060Z,99049.27
2019-02-08T23:48:43.083Z,99032.55
2019-02-08T23:51:12.087Z,99035.64
2019-02-08T23:53:41.097Z,99033.91
2019-02-08T23:56:10.096Z,99023.39
2019-02-08T23:58:39.100Z,99061.98
